createdAt,value
2018-07-31T00:00:54.674Z,4.87
2018-07-31T00:03:22.880Z,4.58
2018-07-31T00:05:51.043Z,4.90
2018-07-31T00:08:19.246Z,4.67
2018-07-31T00:10:47.420Z,4.90
2018-07-31T00:13:15.615Z,5.03
2018-07-31T00:15:43.790Z,4.45
2018-07-31T00:18:11.985Z,5.05
2018-07-31T00:20:40.170Z,4.60
2018-07-31T00:23:08.381Z,4.80
2018-07-31T00:25:36.542Z,4.62
2018-07-31T00:28:04.860Z,4.78
2018-07-31T00:30:33.013Z,5.08
2018-07-31T00:33:01.214Z,4.72
2018-07-31T00:35:29.397Z,4.90
2018-07-31T00:37:57.606Z,5.00
2018-07-31T00:40:26.794Z,5.00
2018-07-31T00:42:54.978Z,5.47
2018-07-31T00:45:23.157Z,5.08
2018-07-31T00:47:51.354Z,4.95
2018-07-31T00:50:19.538Z,5.80
2018-07-31T00:52:47.736Z,5.60
2018-07-31T00:55:16.002Z,5.50
2018-07-31T00:57:44.110Z,5.30
2018-07-31T01:00:12.287Z,5.37
2018-07-31T01:02:40.464Z,4.85
2018-07-31T01:05:08.629Z,5.20
2018-07-31T01:07:36.722Z,5.28
2018-07-31T01:10:05.145Z,5.28
2018-07-31T01:12:33.297Z,5.75
2018-07-31T01:15:01.383Z,5.60
2018-07-31T01:17:29.481Z,5.45
2018-07-31T01:19:57.647Z,5.53
2018-07-31T01:22:25.841Z,5.25
2018-07-31T01:24:53.919Z,4.95
2018-07-31T01:27:22.020Z,5.12
2018-07-31T01:29:50.199Z,5.50
2018-07-31T01:32:18.293Z,5.03
2018-07-31T01:34:46.466Z,5.00
2018-07-31T01:37:14.563Z,5.40
2018-07-31T01:39:42.632Z,5.25
2018-07-31T01:42:10.713Z,5.33
2018-07-31T01:44:38.805Z,5.50
2018-07-31T01:47:06.898Z,5.53
2018-07-31T01:49:35.078Z,5.37
2018-07-31T01:52:03.166Z,5.97
2018-07-31T01:54:31.278Z,5.47
2018-07-31T01:56:59.434Z,4.92
2018-07-31T01:59:27.517Z,5.50
2018-07-31T02:01:55.913Z,5.67
2018-07-31T02:04:24.098Z,5.47
2018-07-31T02:06:52.170Z,5.50
2018-07-31T02:09:20.294Z,5.37
2018-07-31T02:11:48.458Z,5.08
2018-07-31T02:14:16.522Z,5.35
2018-07-31T02:16:44.658Z,5.25
2018-07-31T02:19:12.812Z,5.55
2018-07-31T02:21:40.989Z,5.40
2018-07-31T02:24:09.100Z,4.97
2018-07-31T02:26:37.262Z,5.97
2018-07-31T02:29:05.369Z,5.53
2018-07-31T02:31:33.531Z,5.78
2018-07-31T02:34:01.630Z,6.00
2018-07-31T02:36:29.805Z,5.53
2018-07-31T02:38:57.910Z,5.60
2018-07-31T02:41:26.119Z,5.08
2018-07-31T02:43:54.175Z,5.30
2018-07-31T02:46:22.341Z,5.78
2018-07-31T02:48:50.442Z,4.92
2018-07-31T02:51:18.615Z,5.20
2018-07-31T02:53:46.706Z,5.20
2018-07-31T02:56:15.827Z,5.22
2018-07-31T02:58:44.005Z,5.35
2018-07-31T03:01:12.073Z,5.40
2018-07-31T03:03:40.170Z,5.65
2018-07-31T03:06:08.264Z,5.08
2018-07-31T03:08:36.338Z,5.58
2018-07-31T03:11:04.417Z,6.05
2018-07-31T03:13:32.542Z,5.45
2018-07-31T03:16:00.707Z,5.42
2018-07-31T03:18:28.898Z,5.65
2018-07-31T03:20:57.075Z,5.15
2018-07-31T03:23:25.201Z,5.83
2018-07-31T03:25:53.339Z,5.15
2018-07-31T03:28:21.422Z,6.03
2018-07-31T03:30:50.074Z,5.15
2018-07-31T03:33:18.210Z,6.00
2018-07-31T03:35:46.285Z,5.10
2018-07-31T03:38:14.377Z,6.00
2018-07-31T03:40:42.505Z,4.92
2018-07-31T03:43:10.693Z,6.03
2018-07-31T03:45:38.821Z,5.72
2018-07-31T03:48:06.927Z,5.33
2018-07-31T03:50:35.115Z,5.22
2018-07-31T03:53:03.294Z,5.35
2018-07-31T03:55:31.416Z,5.40
2018-07-31T03:57:59.457Z,4.97
2018-07-31T04:00:28.610Z,5.08
2018-07-31T04:02:56.753Z,4.83
2018-07-31T04:05:24.850Z,5.00
2018-07-31T04:07:53.038Z,5.20
2018-07-31T04:10:21.870Z,5.20
2018-07-31T04:12:49.937Z,5.03
2018-07-31T04:15:18.117Z,5.40
2018-07-31T04:17:49.593Z,5.17
2018-07-31T04:20:17.794Z,5.33
2018-07-31T04:22:45.962Z,5.40
2018-07-31T04:25:14.154Z,4.55
2018-07-31T04:27:42.554Z,5.15
2018-07-31T04:30:10.769Z,5.37
2018-07-31T04:32:38.909Z,4.97
2018-07-31T04:35:07.150Z,5.10
2018-07-31T04:37:35.290Z,5.20
2018-07-31T04:40:03.502Z,4.83
2018-07-31T04:42:31.666Z,5.10
2018-07-31T04:44:59.853Z,5.08
2018-07-31T04:47:28.054Z,5.30
2018-07-31T04:49:56.229Z,4.90
2018-07-31T04:52:24.397Z,4.95
2018-07-31T04:54:52.722Z,5.12
2018-07-31T04:57:20.881Z,5.47
2018-07-31T04:59:49.082Z,4.50
2018-07-31T05:02:17.253Z,5.30
2018-07-31T05:04:45.453Z,5.25
2018-07-31T05:07:13.570Z,4.60
2018-07-31T05:09:41.722Z,5.50
2018-07-31T05:12:09.902Z,5.50
2018-07-31T05:14:38.090Z,5.15
2018-07-31T05:17:06.278Z,4.72
2018-07-31T05:19:34.475Z,5.37
2018-07-31T05:22:02.662Z,5.05
2018-07-31T05:24:30.841Z,5.83
2018-07-31T05:26:59.027Z,5.92
2018-07-31T05:29:27.395Z,6.00
2018-07-31T05:31:55.690Z,5.62
2018-07-31T05:34:23.818Z,6.35
2018-07-31T05:36:51.973Z,5.62
2018-07-31T05:39:20.165Z,6.00
2018-07-31T05:41:48.373Z,5.80
2018-07-31T05:44:16.546Z,6.08
2018-07-31T05:46:44.717Z,5.60
2018-07-31T05:49:12.923Z,5.50
2018-07-31T05:51:41.113Z,5.17
2018-07-31T05:54:09.298Z,5.37
2018-07-31T05:56:37.461Z,5.08
2018-07-31T05:59:05.661Z,6.12
2018-07-31T06:01:34.087Z,6.30
2018-07-31T06:04:02.210Z,6.55
2018-07-31T06:06:30.312Z,6.17
2018-07-31T06:08:58.478Z,5.67
2018-07-31T06:11:26.592Z,5.20
2018-07-31T06:13:54.793Z,6.03
2018-07-31T06:16:22.941Z,5.90
2018-07-31T06:18:51.025Z,6.12
2018-07-31T06:21:19.122Z,7.03
2018-07-31T06:23:47.285Z,6.17
2018-07-31T06:26:15.390Z,5.90
2018-07-31T06:28:43.561Z,6.05
2018-07-31T06:31:11.658Z,5.87
2018-07-31T06:33:39.838Z,6.10
2018-07-31T06:36:07.925Z,5.50
2018-07-31T06:38:36.003Z,6.50
2018-07-31T06:41:05.130Z,6.35
2018-07-31T06:43:33.366Z,6.12
2018-07-31T06:46:01.398Z,6.35
2018-07-31T06:48:29.480Z,5.78
2018-07-31T06:50:57.398Z,5.53
2018-07-31T06:53:25.543Z,6.33
2018-07-31T06:55:53.643Z,5.87
2018-07-31T06:58:21.982Z,5.83
2018-07-31T07:00:50.141Z,6.25
2018-07-31T07:03:18.310Z,6.25
2018-07-31T07:05:46.509Z,5.45
2018-07-31T07:08:14.779Z,5.87
2018-07-31T07:10:42.891Z,4.87
2018-07-31T07:13:11.061Z,6.30
2018-07-31T07:15:39.259Z,5.62
2018-07-31T07:18:07.446Z,5.65
2018-07-31T07:20:35.626Z,5.65
2018-07-31T07:23:03.814Z,5.70
2018-07-31T07:25:32.059Z,5.28
2018-07-31T07:28:00.375Z,5.75
2018-07-31T07:30:28.537Z,5.67
2018-07-31T07:32:56.663Z,5.92
2018-07-31T07:35:24.942Z,5.50
2018-07-31T07:37:53.142Z,6.05
2018-07-31T07:40:21.113Z,5.87
2018-07-31T07:42:49.353Z,5.70
2018-07-31T07:45:17.518Z,5.37
2018-07-31T07:47:45.681Z,5.80
2018-07-31T07:50:14.034Z,6.28
2018-07-31T07:52:42.146Z,5.70
2018-07-31T07:55:10.570Z,5.35
2018-07-31T07:57:38.718Z,5.85
2018-07-31T08:00:08.554Z,6.47
2018-07-31T08:02:37.161Z,5.55
2018-07-31T08:05:05.545Z,5.60
2018-07-31T08:07:33.950Z,5.90
2018-07-31T08:10:02.121Z,6.42
2018-07-31T08:12:30.334Z,5.53
2018-07-31T08:14:58.726Z,6.15
2018-07-31T08:17:26.893Z,5.60
2018-07-31T08:19:55.182Z,5.55
2018-07-31T08:22:23.365Z,5.55
2018-07-31T08:24:51.781Z,5.45
2018-07-31T08:27:19.949Z,5.97
2018-07-31T08:29:48.126Z,5.83
2018-07-31T08:32:16.317Z,6.03
2018-07-31T08:34:44.489Z,5.95
2018-07-31T08:37:12.706Z,4.92
2018-07-31T08:39:40.874Z,5.50
2018-07-31T08:42:09.069Z,5.50
2018-07-31T08:44:37.254Z,5.53
2018-07-31T08:47:05.615Z,6.05
2018-07-31T08:49:33.532Z,5.42
2018-07-31T08:52:01.726Z,5.37
2018-07-31T08:54:29.893Z,5.80
2018-07-31T08:56:58.598Z,5.20
2018-07-31T08:59:26.669Z,5.30
2018-07-31T09:01:54.778Z,5.03
2018-07-31T09:04:22.927Z,5.78
2018-07-31T09:06:51.034Z,5.25
2018-07-31T09:09:19.196Z,5.22
2018-07-31T09:11:47.277Z,5.05
2018-07-31T09:14:15.361Z,5.00
2018-07-31T09:16:43.450Z,5.80
2018-07-31T09:19:11.530Z,5.45
2018-07-31T09:21:39.614Z,5.85
2018-07-31T09:24:07.832Z,5.87
2018-07-31T09:26:36.006Z,5.45
2018-07-31T09:29:04.169Z,5.80
2018-07-31T09:31:32.278Z,6.15
2018-07-31T09:34:00.456Z,5.62
2018-07-31T09:36:28.670Z,5.65
2018-07-31T09:38:56.741Z,5.37
2018-07-31T09:41:24.818Z,4.72
2018-07-31T09:43:53.038Z,5.17
2018-07-31T09:46:21.210Z,5.45
2018-07-31T09:48:49.376Z,4.58
2018-07-31T09:51:17.590Z,4.80
2018-07-31T09:53:45.742Z,4.65
2018-07-31T09:56:13.802Z,4.50
2018-07-31T09:58:41.749Z,4.83
2018-07-31T10:01:15.461Z,4.95
2018-07-31T10:03:43.618Z,4.97
2018-07-31T10:06:11.794Z,4.20
2018-07-31T10:08:39.890Z,4.92
2018-07-31T10:11:08.066Z,4.70
2018-07-31T10:13:36.160Z,4.78
2018-07-31T10:16:04.234Z,4.20
2018-07-31T10:18:32.331Z,3.90
2018-07-31T10:21:00.534Z,4.70
2018-07-31T10:23:28.698Z,4.33
2018-07-31T10:25:56.898Z,4.30
2018-07-31T10:28:25.075Z,4.22
2018-07-31T10:30:53.397Z,3.80
2018-07-31T10:33:21.348Z,4.17
2018-07-31T10:35:49.513Z,4.12
2018-07-31T10:38:17.615Z,4.12
2018-07-31T10:40:45.791Z,4.00
2018-07-31T10:43:13.869Z,3.92
2018-07-31T10:45:41.953Z,4.47
2018-07-31T10:48:10.063Z,4.03
2018-07-31T10:50:38.274Z,3.75
2018-07-31T10:53:06.330Z,3.75
2018-07-31T10:55:34.509Z,3.40
2018-07-31T10:58:02.675Z,3.30
2018-07-31T11:00:31.700Z,3.77
2018-07-31T11:02:59.977Z,4.25
2018-07-31T11:05:28.065Z,3.70
2018-07-31T11:07:55.997Z,4.05
2018-07-31T11:10:25.180Z,3.45
2018-07-31T11:12:53.456Z,4.12
2018-07-31T11:15:21.642Z,3.83
2018-07-31T11:17:49.880Z,3.50
2018-07-31T11:20:18.073Z,3.83
2018-07-31T11:22:46.210Z,3.52
2018-07-31T11:25:14.414Z,3.05
2018-07-31T11:27:42.578Z,4.10
2018-07-31T11:30:10.657Z,3.65
2018-07-31T11:32:38.741Z,3.77
2018-07-31T11:35:06.829Z,3.95
2018-07-31T11:37:34.911Z,3.37
2018-07-31T11:40:03.004Z,3.67
2018-07-31T11:42:31.078Z,3.45
2018-07-31T11:44:59.149Z,3.80
2018-07-31T11:47:27.254Z,3.40
2018-07-31T11:49:55.537Z,3.90
2018-07-31T11:52:23.628Z,3.50
2018-07-31T11:54:51.701Z,3.45
2018-07-31T11:57:19.796Z,3.37
2018-07-31T11:59:47.921Z,4.08
2018-07-31T12:02:16.177Z,3.67
2018-07-31T12:04:44.067Z,3.90
2018-07-31T12:07:12.225Z,3.40
2018-07-31T12:09:40.129Z,3.87
2018-07-31T12:12:08.301Z,3.80
2018-07-31T12:14:36.490Z,3.83
2018-07-31T12:17:04.697Z,3.42
2018-07-31T12:19:32.868Z,3.75
2018-07-31T12:22:00.938Z,4.12
2018-07-31T12:24:29.029Z,3.60
2018-07-31T12:26:57.182Z,4.10
2018-07-31T12:29:25.193Z,3.65
2018-07-31T12:31:53.292Z,3.60
2018-07-31T12:34:21.470Z,3.98
2018-07-31T12:36:49.546Z,3.77
2018-07-31T12:39:17.642Z,3.77
2018-07-31T12:41:45.822Z,3.90
2018-07-31T12:44:13.918Z,3.87
2018-07-31T12:46:42.090Z,3.90
2018-07-31T12:49:10.181Z,3.70
2018-07-31T12:51:38.255Z,3.37
2018-07-31T12:54:06.426Z,3.92
2018-07-31T12:56:34.533Z,4.08
2018-07-31T12:59:02.633Z,3.90
2018-07-31T13:01:30.797Z,3.98
2018-07-31T13:03:58.898Z,3.42
2018-07-31T13:06:27.077Z,3.87
2018-07-31T13:08:55.158Z,3.87
2018-07-31T13:11:23.247Z,3.65
2018-07-31T13:13:51.335Z,3.70
2018-07-31T13:16:19.514Z,3.52
2018-07-31T13:18:47.655Z,3.90
2018-07-31T13:21:15.788Z,3.75
2018-07-31T13:23:43.870Z,3.60
2018-07-31T13:26:11.970Z,3.70
2018-07-31T13:28:40.145Z,3.72
2018-07-31T13:31:08.233Z,3.72
2018-07-31T13:33:36.302Z,4.12
2018-07-31T13:36:04.397Z,3.87
2018-07-31T13:38:32.481Z,3.70
2018-07-31T13:41:00.577Z,4.42
2018-07-31T13:43:28.789Z,3.90
2018-07-31T13:45:56.882Z,3.85
2018-07-31T13:48:24.995Z,3.92
2018-07-31T13:50:53.142Z,3.90
2018-07-31T13:53:21.296Z,4.28
2018-07-31T13:55:49.392Z,3.77
2018-07-31T13:58:17.701Z,4.12
2018-07-31T14:00:45.862Z,3.75
2018-07-31T14:03:14.297Z,3.62
2018-07-31T14:05:42.479Z,3.75
2018-07-31T14:08:10.667Z,3.85
2018-07-31T14:10:38.841Z,3.80
2018-07-31T14:13:07.025Z,3.67
2018-07-31T14:15:35.205Z,3.95
2018-07-31T14:18:03.381Z,4.03
2018-07-31T14:20:31.925Z,3.37
2018-07-31T14:23:00.009Z,3.87
2018-07-31T14:25:28.175Z,3.30
2018-07-31T14:27:56.457Z,3.70
2018-07-31T14:30:24.707Z,3.72
2018-07-31T14:32:52.874Z,3.35
2018-07-31T14:35:21.022Z,3.65
2018-07-31T14:37:49.212Z,3.70
2018-07-31T14:40:17.393Z,3.40
2018-07-31T14:42:45.595Z,3.98
2018-07-31T14:45:13.773Z,3.40
2018-07-31T14:47:42.683Z,3.75
2018-07-31T14:50:10.857Z,3.45
2018-07-31T14:52:39.182Z,3.80
2018-07-31T14:55:07.767Z,3.60
2018-07-31T14:57:35.979Z,3.70
2018-07-31T15:00:04.526Z,3.58
2018-07-31T15:02:32.706Z,3.70
2018-07-31T15:05:01.258Z,3.47
2018-07-31T15:07:29.567Z,3.27
2018-07-31T15:09:57.686Z,3.60
2018-07-31T15:12:25.990Z,3.50
2018-07-31T15:14:54.137Z,3.50
2018-07-31T15:17:22.330Z,3.02
2018-07-31T15:19:50.517Z,3.22
2018-07-31T15:22:19.330Z,2.60
2018-07-31T15:24:47.502Z,2.85
2018-07-31T15:27:15.698Z,2.80
2018-07-31T15:29:43.914Z,2.42
2018-07-31T15:32:12.042Z,2.22
2018-07-31T15:34:40.129Z,2.92
2018-07-31T15:37:08.228Z,2.62
2018-07-31T15:39:36.424Z,2.92
2018-07-31T15:42:04.993Z,2.58
2018-07-31T15:44:33.086Z,2.60
2018-07-31T15:47:01.187Z,2.47
2018-07-31T15:49:29.769Z,2.35
2018-07-31T15:51:57.750Z,2.30
2018-07-31T15:54:25.830Z,2.65
2018-07-31T15:56:53.916Z,2.52
2018-07-31T15:59:22.096Z,2.27
2018-07-31T16:01:50.154Z,3.15
2018-07-31T16:04:18.313Z,3.50
2018-07-31T16:06:46.494Z,3.72
2018-07-31T16:09:14.762Z,3.42
2018-07-31T16:11:43.036Z,3.10
2018-07-31T16:14:11.235Z,3.30
2018-07-31T16:16:39.449Z,2.72
2018-07-31T16:19:07.643Z,2.83
2018-07-31T16:21:35.818Z,3.15
2018-07-31T16:24:04.006Z,3.25
2018-07-31T16:26:32.324Z,2.62
2018-07-31T16:29:00.804Z,3.00
2018-07-31T16:31:29.124Z,3.02
2018-07-31T16:33:57.407Z,2.85
2018-07-31T16:36:25.647Z,3.27
2018-07-31T16:38:53.843Z,3.42
2018-07-31T16:41:22.079Z,3.80
2018-07-31T16:43:50.202Z,2.92
2018-07-31T16:46:18.414Z,2.87
2018-07-31T16:48:46.574Z,2.70
2018-07-31T16:51:14.850Z,2.72
2018-07-31T16:53:42.981Z,2.65
2018-07-31T16:56:11.151Z,2.60
2018-07-31T16:58:39.327Z,2.90
2018-07-31T17:01:07.566Z,2.40
2018-07-31T17:03:35.722Z,3.00
2018-07-31T17:06:03.897Z,2.70
2018-07-31T17:08:32.106Z,2.72
2018-07-31T17:11:00.262Z,2.92
2018-07-31T17:13:28.450Z,3.10
2018-07-31T17:15:56.621Z,2.80
2018-07-31T17:18:24.821Z,2.62
2018-07-31T17:20:53.393Z,2.77
2018-07-31T17:23:21.469Z,2.87
2018-07-31T17:25:49.902Z,3.30
2018-07-31T17:28:18.045Z,3.20
2018-07-31T17:30:46.154Z,2.83
2018-07-31T17:33:15.142Z,2.50
2018-07-31T17:35:43.243Z,3.00
2018-07-31T17:38:11.414Z,2.98
2018-07-31T17:40:39.503Z,2.98
2018-07-31T17:43:07.586Z,2.75
2018-07-31T17:45:35.670Z,2.90
2018-07-31T17:48:03.893Z,3.17
2018-07-31T17:50:33.057Z,3.00
2018-07-31T17:53:01.210Z,2.95
2018-07-31T17:55:29.348Z,2.55
2018-07-31T17:57:57.546Z,2.50
2018-07-31T18:00:25.618Z,2.52
2018-07-31T18:02:53.822Z,2.75
2018-07-31T18:05:22.353Z,1.70
2018-07-31T18:07:50.518Z,2.00
2018-07-31T18:10:18.765Z,1.67
2018-07-31T18:12:47.006Z,1.70
2018-07-31T18:15:15.171Z,1.92
2018-07-31T18:17:44.385Z,2.00
2018-07-31T18:20:12.584Z,1.77
2018-07-31T18:22:40.753Z,2.12
2018-07-31T18:25:08.866Z,2.42
2018-07-31T18:27:37.023Z,1.72
2018-07-31T18:30:05.339Z,1.87
2018-07-31T18:32:33.518Z,1.92
2018-07-31T18:35:01.876Z,1.75
2018-07-31T18:37:30.086Z,1.65
2018-07-31T18:39:58.273Z,2.50
2018-07-31T18:42:26.457Z,2.10
2018-07-31T18:44:54.679Z,2.25
2018-07-31T18:47:22.845Z,2.10
2018-07-31T18:49:51.123Z,1.70
2018-07-31T18:52:19.300Z,1.80
2018-07-31T18:54:47.554Z,2.20
2018-07-31T18:57:15.673Z,1.85
2018-07-31T18:59:44.706Z,2.08
2018-07-31T19:02:12.870Z,1.77
2018-07-31T19:04:41.042Z,1.92
2018-07-31T19:07:09.573Z,2.30
2018-07-31T19:09:37.879Z,2.02
2018-07-31T19:12:06.258Z,1.82
2018-07-31T19:14:34.759Z,1.95
2018-07-31T19:17:02.909Z,1.57
2018-07-31T19:19:31.125Z,1.85
2018-07-31T19:21:59.329Z,2.40
2018-07-31T19:24:28.190Z,1.77
2018-07-31T19:26:56.478Z,2.10
2018-07-31T19:29:24.711Z,1.90
2018-07-31T19:31:52.897Z,2.02
2018-07-31T19:34:21.398Z,1.40
2018-07-31T19:36:49.538Z,1.67
2018-07-31T19:39:17.723Z,2.10
2018-07-31T19:41:46.185Z,1.30
2018-07-31T19:44:14.346Z,1.65
2018-07-31T19:46:42.599Z,2.20
2018-07-31T19:49:10.705Z,2.00
2018-07-31T19:51:39.270Z,1.52
2018-07-31T19:54:07.469Z,1.70
2018-07-31T19:56:35.642Z,2.02
2018-07-31T19:59:03.834Z,1.65
2018-07-31T20:01:32.030Z,1.60
2018-07-31T20:04:00.223Z,1.65
2018-07-31T20:06:28.374Z,1.80
2018-07-31T20:08:56.583Z,1.60
2018-07-31T20:11:24.774Z,1.82
2018-07-31T20:13:52.950Z,1.47
2018-07-31T20:16:21.138Z,1.77
2018-07-31T20:18:49.322Z,1.30
2018-07-31T20:21:17.509Z,1.70
2018-07-31T20:23:45.598Z,1.70
2018-07-31T20:26:13.766Z,1.70
2018-07-31T20:28:41.966Z,1.85
2018-07-31T20:31:10.122Z,1.80
2018-07-31T20:33:38.205Z,1.80
2018-07-31T20:36:06.378Z,1.98
2018-07-31T20:38:34.493Z,1.57
2018-07-31T20:41:02.565Z,1.80
2018-07-31T20:43:30.663Z,1.47
2018-07-31T20:45:58.841Z,1.90
2018-07-31T20:48:26.925Z,1.42
2018-07-31T20:50:55.010Z,1.42
2018-07-31T20:53:23.210Z,1.62
2018-07-31T20:55:51.375Z,1.60
2018-07-31T20:58:19.474Z,1.87
2018-07-31T21:00:47.654Z,1.60
2018-07-31T21:03:15.847Z,2.35
2018-07-31T21:05:43.925Z,1.45
2018-07-31T21:08:12.022Z,1.42
2018-07-31T21:10:40.188Z,1.42
2018-07-31T21:13:08.102Z,1.67
2018-07-31T21:15:37.173Z,1.60
2018-07-31T21:18:05.288Z,1.57
2018-07-31T21:20:33.453Z,1.40
2018-07-31T21:23:01.537Z,1.65
2018-07-31T21:25:29.627Z,1.50
2018-07-31T21:27:57.713Z,1.32
2018-07-31T21:30:26.806Z,1.27
2018-07-31T21:32:54.901Z,1.52
2018-07-31T21:35:23.090Z,1.47
2018-07-31T21:37:51.529Z,1.50
2018-07-31T21:40:19.653Z,1.57
2018-07-31T21:42:47.889Z,1.30
2018-07-31T21:45:16.155Z,1.40
2018-07-31T21:47:44.317Z,1.35
2018-07-31T21:50:12.315Z,1.22
2018-07-31T21:52:40.438Z,1.30
2018-07-31T21:55:08.481Z,1.25
2018-07-31T21:57:36.569Z,1.15
2018-07-31T22:00:07.406Z,1.20
2018-07-31T22:02:36.538Z,1.30
2018-07-31T22:05:04.743Z,1.32
2018-07-31T22:07:32.913Z,1.22
2018-07-31T22:10:01.113Z,1.02
2018-07-31T22:12:29.293Z,1.40
2018-07-31T22:14:57.504Z,1.22
2018-07-31T22:17:25.688Z,1.30
2018-07-31T22:19:53.874Z,1.47
2018-07-31T22:22:22.066Z,1.40
2018-07-31T22:24:50.300Z,1.27
2018-07-31T22:27:18.410Z,1.55
2018-07-31T22:29:46.610Z,1.40
2018-07-31T22:32:14.878Z,1.30
2018-07-31T22:34:42.977Z,1.45
2018-07-31T22:37:11.157Z,1.22
2018-07-31T22:39:39.354Z,1.37
2018-07-31T22:42:07.529Z,1.30
2018-07-31T22:44:35.726Z,1.20
2018-07-31T22:47:04.018Z,1.50
2018-07-31T22:49:32.215Z,1.30
2018-07-31T22:52:00.402Z,1.30
2018-07-31T22:54:28.581Z,1.60
2018-07-31T22:56:56.773Z,1.10
2018-07-31T22:59:25.966Z,1.32
2018-07-31T23:01:54.170Z,1.27
2018-07-31T23:04:22.318Z,1.40
2018-07-31T23:06:50.400Z,1.77
2018-07-31T23:09:18.590Z,1.27
2018-07-31T23:11:46.694Z,1.40
2018-07-31T23:14:14.999Z,1.40
2018-07-31T23:16:43.045Z,1.40
2018-07-31T23:19:11.144Z,1.35
2018-07-31T23:21:39.311Z,1.00
2018-07-31T23:24:07.413Z,1.10
2018-07-31T23:26:35.593Z,1.35
2018-07-31T23:29:03.786Z,1.37
2018-07-31T23:31:31.850Z,1.10
2018-07-31T23:33:59.966Z,1.80
2018-07-31T23:36:28.131Z,1.27
2018-07-31T23:38:56.221Z,1.35
2018-07-31T23:41:24.394Z,1.27
2018-07-31T23:43:52.494Z,1.07
2018-07-31T23:46:21.598Z,1.10
2018-07-31T23:48:49.693Z,1.30
2018-07-31T23:51:17.861Z,1.52
2018-07-31T23:53:45.985Z,1.70
2018-07-31T23:56:14.161Z,1.55
2018-07-31T23:58:42.431Z,1.35
